createdAt,value
2022-08-21T00:00:44.434Z,11.90
2022-08-21T00:01:43.170Z,12.04
2022-08-21T00:02:43.223Z,12.03
2022-08-21T00:03:43.144Z,12.03
2022-08-21T00:04:48.241Z,12.16
2022-08-21T00:05:44.122Z,11.98
2022-08-21T00:06:43.116Z,11.93
2022-08-21T00:07:43.113Z,12.01
2022-08-21T00:08:43.111Z,11.98
2022-08-21T00:09:43.093Z,11.94
2022-08-21T00:10:43.071Z,12.07
2022-08-21T00:11:43.055Z,11.87
2022-08-21T00:12:43.050Z,11.97
2022-08-21T00:13:43.035Z,11.93
2022-08-21T00:14:43.029Z,11.87
2022-08-21T00:15:43.071Z,12.03
2022-08-21T00:16:43.015Z,11.93
2022-08-21T00:17:42.994Z,11.98
2022-08-21T00:18:43.089Z,11.94
2022-08-21T00:19:42.971Z,11.90
2022-08-21T00:20:42.982Z,11.93
2022-08-21T00:21:44.364Z,11.90
2022-08-21T00:22:42.950Z,11.96
2022-08-21T00:23:42.942Z,11.88
2022-08-21T00:24:42.933Z,12.03
2022-08-21T00:25:43.019Z,11.97
2022-08-21T00:26:42.904Z,11.94
2022-08-21T00:27:42.905Z,11.93
2022-08-21T00:28:42.887Z,11.98
2022-08-21T00:29:42.861Z,12.00
2022-08-21T00:30:42.856Z,11.96
2022-08-21T00:31:42.857Z,12.01
2022-08-21T00:32:42.834Z,11.98
2022-08-21T00:33:42.863Z,12.01
2022-08-21T00:34:42.834Z,11.87
2022-08-21T00:35:42.802Z,11.90
2022-08-21T00:36:42.790Z,11.84
2022-08-21T00:37:42.783Z,11.87
2022-08-21T00:38:42.770Z,11.74
2022-08-21T00:39:42.865Z,11.82
2022-08-21T00:40:42.773Z,11.77
2022-08-21T00:41:42.734Z,11.72
2022-08-21T00:42:42.802Z,11.72
2022-08-21T00:43:42.715Z,11.67
2022-08-21T00:44:42.710Z,11.75
2022-08-21T00:45:42.709Z,11.72
2022-08-21T00:46:42.692Z,11.69
2022-08-21T00:47:42.672Z,11.72
2022-08-21T00:48:42.667Z,11.66
2022-08-21T00:49:42.645Z,11.75
2022-08-21T00:50:42.638Z,11.59
2022-08-21T00:51:42.665Z,11.67
2022-08-21T00:52:42.616Z,11.63
2022-08-21T00:53:42.609Z,11.70
2022-08-21T00:54:44.578Z,11.70
2022-08-21T00:55:42.594Z,11.53
2022-08-21T00:56:42.586Z,11.57
2022-08-21T00:57:42.567Z,11.46
2022-08-21T00:58:42.561Z,11.56
2022-08-21T00:59:42.541Z,11.49
2022-08-21T01:00:42.654Z,11.51
2022-08-21T01:01:42.528Z,11.44
2022-08-21T01:02:42.511Z,11.46
2022-08-21T01:03:44.099Z,11.41
2022-08-21T01:04:42.512Z,11.30
2022-08-21T01:05:42.480Z,11.38
2022-08-21T01:06:42.479Z,11.36
2022-08-21T01:07:42.481Z,11.35
2022-08-21T01:08:46.682Z,11.39
2022-08-21T01:09:42.437Z,11.44
2022-08-21T01:10:42.473Z,11.41
2022-08-21T01:11:42.410Z,11.42
2022-08-21T01:12:42.419Z,11.35
2022-08-21T01:13:42.391Z,11.46
2022-08-21T01:14:42.380Z,11.39
2022-08-21T01:15:42.373Z,11.54
2022-08-21T01:16:42.423Z,11.53
2022-08-21T01:17:42.349Z,11.57
2022-08-21T01:18:42.351Z,11.59
2022-08-21T01:19:42.335Z,11.54
2022-08-21T01:20:42.314Z,11.49
2022-08-21T01:21:42.301Z,11.44
2022-08-21T01:22:42.296Z,11.53
2022-08-21T01:23:42.381Z,11.44
2022-08-21T01:24:42.292Z,11.57
2022-08-21T01:25:42.264Z,11.44
2022-08-21T01:26:42.253Z,11.38
2022-08-21T01:27:42.235Z,11.59
2022-08-21T01:28:42.227Z,11.53
2022-08-21T01:29:42.269Z,11.54
2022-08-21T01:30:42.226Z,11.57
2022-08-21T01:31:42.215Z,11.51
2022-08-21T01:32:42.186Z,11.59
2022-08-21T01:33:42.177Z,11.56
2022-08-21T01:34:42.164Z,11.49
2022-08-21T01:35:42.298Z,11.53
2022-08-21T01:36:42.145Z,11.56
2022-08-21T01:37:42.131Z,11.57
2022-08-21T01:38:42.122Z,11.57
2022-08-21T01:39:42.136Z,11.66
2022-08-21T01:40:42.103Z,11.57
2022-08-21T01:41:42.220Z,11.51
2022-08-21T01:42:42.084Z,11.51
2022-08-21T01:43:42.070Z,11.53
2022-08-21T01:44:42.059Z,11.49
2022-08-21T01:45:42.043Z,11.59
2022-08-21T01:46:42.037Z,11.48
2022-08-21T01:47:42.096Z,11.54
2022-08-21T01:48:42.016Z,11.66
2022-08-21T01:49:41.998Z,11.64
2022-08-21T01:50:41.989Z,11.56
2022-08-21T01:51:41.985Z,11.59
2022-08-21T01:52:41.968Z,11.66
2022-08-21T01:53:42.010Z,11.64
2022-08-21T01:54:41.962Z,11.67
2022-08-21T01:55:41.939Z,11.66
2022-08-21T01:56:41.933Z,11.72
2022-08-21T01:57:41.928Z,11.66
2022-08-21T01:58:42.014Z,11.60
2022-08-21T01:59:41.948Z,11.67
2022-08-21T02:00:41.937Z,11.72
2022-08-21T02:01:41.871Z,11.64
2022-08-21T02:02:41.868Z,11.66
2022-08-21T02:03:41.851Z,11.54
2022-08-21T02:04:41.839Z,11.57
2022-08-21T02:05:41.875Z,11.62
2022-08-21T02:06:41.819Z,11.54
2022-08-21T02:07:41.806Z,11.64
2022-08-21T02:08:41.817Z,11.56
2022-08-21T02:09:41.784Z,11.51
2022-08-21T02:10:41.775Z,11.54
2022-08-21T02:11:42.813Z,11.49
2022-08-21T02:12:41.754Z,11.53
2022-08-21T02:13:41.759Z,11.44
2022-08-21T02:14:41.732Z,11.59
2022-08-21T02:15:41.722Z,11.49
2022-08-21T02:16:41.726Z,11.46
2022-08-21T02:17:41.727Z,11.48
2022-08-21T02:18:41.707Z,11.44
2022-08-21T02:19:41.680Z,11.41
2022-08-21T02:20:41.676Z,11.46
2022-08-21T02:21:41.661Z,11.39
2022-08-21T02:22:41.664Z,11.33
2022-08-21T02:23:41.641Z,11.38
2022-08-21T02:24:53.839Z,11.28
2022-08-21T02:25:42.610Z,11.30
2022-08-21T02:26:41.606Z,11.33
2022-08-21T02:27:41.595Z,11.23
2022-08-21T02:28:41.595Z,11.33
2022-08-21T02:29:41.589Z,11.31
2022-08-21T02:30:41.564Z,11.30
2022-08-21T02:31:41.548Z,11.27
2022-08-21T02:32:41.544Z,11.38
2022-08-21T02:33:41.544Z,11.35
2022-08-21T02:34:41.518Z,11.30
2022-08-21T02:35:41.513Z,11.30
2022-08-21T02:36:41.495Z,11.31
2022-08-21T02:37:41.487Z,11.30
2022-08-21T02:38:41.476Z,11.41
2022-08-21T02:39:41.528Z,11.26
2022-08-21T02:40:43.819Z,11.35
2022-08-21T02:41:42.462Z,11.36
2022-08-21T02:42:41.429Z,11.33
2022-08-21T02:43:41.434Z,11.27
2022-08-21T02:44:41.410Z,11.36
2022-08-21T02:45:41.411Z,11.35
2022-08-21T02:46:41.416Z,11.42
2022-08-21T02:47:41.409Z,11.38
2022-08-21T02:48:41.370Z,11.41
2022-08-21T02:49:41.357Z,11.35
2022-08-21T02:50:41.379Z,11.26
2022-08-21T02:51:41.368Z,11.45
2022-08-21T02:52:41.349Z,11.28
2022-08-21T02:53:41.347Z,11.26
2022-08-21T02:54:41.306Z,11.21
2022-08-21T02:55:41.290Z,11.42
2022-08-21T02:56:41.303Z,11.36
2022-08-21T02:57:41.273Z,11.26
2022-08-21T02:58:41.269Z,11.35
2022-08-21T02:59:41.314Z,11.36
2022-08-21T03:00:41.238Z,11.31
2022-08-21T03:01:41.283Z,11.23
2022-08-21T03:02:41.229Z,11.23
2022-08-21T03:03:41.210Z,11.27
2022-08-21T03:04:45.951Z,11.31
2022-08-21T03:05:42.232Z,11.24
2022-08-21T03:06:41.179Z,11.30
2022-08-21T03:07:41.171Z,11.28
2022-08-21T03:08:41.161Z,11.27
2022-08-21T03:09:55.875Z,11.27
2022-08-21T03:10:42.135Z,11.36
2022-08-21T03:11:41.183Z,11.36
2022-08-21T03:12:41.112Z,11.36
2022-08-21T03:13:41.109Z,11.35
2022-08-21T03:14:41.139Z,11.24
2022-08-21T03:15:41.097Z,11.35
2022-08-21T03:16:41.064Z,11.36
2022-08-21T03:17:41.090Z,11.23
2022-08-21T03:18:41.049Z,11.27
2022-08-21T03:19:41.053Z,11.31
2022-08-21T03:20:41.161Z,11.21
2022-08-21T03:21:41.009Z,11.28
2022-08-21T03:22:41.006Z,11.38
2022-08-21T03:23:40.995Z,11.21
2022-08-21T03:24:44.146Z,11.24
2022-08-21T03:25:41.219Z,11.26
2022-08-21T03:26:40.960Z,11.19
2022-08-21T03:27:40.951Z,11.20
2022-08-21T03:28:40.934Z,11.21
2022-08-21T03:29:40.922Z,11.20
2022-08-21T03:30:40.954Z,11.21
2022-08-21T03:31:40.903Z,11.19
2022-08-21T03:32:40.891Z,11.19
2022-08-21T03:33:40.893Z,11.17
2022-08-21T03:34:40.869Z,11.19
2022-08-21T03:35:40.858Z,11.21
2022-08-21T03:36:40.897Z,11.20
2022-08-21T03:37:40.843Z,11.11
2022-08-21T03:38:40.832Z,11.13
2022-08-21T03:39:40.883Z,11.17
2022-08-21T03:40:40.816Z,11.17
2022-08-21T03:41:40.797Z,11.17
2022-08-21T03:42:40.828Z,11.13
2022-08-21T03:43:40.771Z,11.09
2022-08-21T03:44:40.763Z,11.03
2022-08-21T03:45:40.755Z,11.11
2022-08-21T03:46:40.757Z,10.93
2022-08-21T03:47:40.731Z,11.06
2022-08-21T03:48:40.760Z,10.93
2022-08-21T03:49:40.708Z,10.91
2022-08-21T03:50:41.309Z,10.86
2022-08-21T03:51:40.695Z,10.93
2022-08-21T03:52:40.688Z,10.80
2022-08-21T03:53:40.671Z,10.80
2022-08-21T03:54:40.704Z,10.69
2022-08-21T03:55:40.669Z,10.57
2022-08-21T03:56:40.632Z,10.49
2022-08-21T03:57:40.629Z,10.54
2022-08-21T03:58:40.616Z,10.51
2022-08-21T03:59:40.614Z,10.54
2022-08-21T04:00:40.621Z,10.47
2022-08-21T04:01:40.622Z,10.39
2022-08-21T04:02:40.574Z,10.47
2022-08-21T04:03:40.559Z,10.38
2022-08-21T04:04:40.550Z,10.39
2022-08-21T04:05:40.548Z,10.36
2022-08-21T04:06:40.554Z,10.35
2022-08-21T04:07:40.526Z,10.42
2022-08-21T04:08:40.516Z,10.34
2022-08-21T04:09:40.501Z,10.35
2022-08-21T04:10:40.484Z,10.35
2022-08-21T04:11:40.499Z,10.35
2022-08-21T04:12:40.474Z,10.18
2022-08-21T04:13:44.385Z,10.26
2022-08-21T04:14:40.436Z,10.22
2022-08-21T04:15:40.427Z,10.35
2022-08-21T04:16:40.430Z,10.34
2022-08-21T04:17:40.431Z,10.24
2022-08-21T04:18:40.476Z,10.35
2022-08-21T04:19:40.386Z,10.13
2022-08-21T04:20:40.371Z,10.24
2022-08-21T04:21:40.382Z,10.11
2022-08-21T04:22:40.354Z,10.10
2022-08-21T04:23:40.478Z,9.99
2022-08-21T04:24:40.333Z,10.07
2022-08-21T04:25:40.347Z,10.06
2022-08-21T04:26:40.327Z,10.02
2022-08-21T04:27:40.305Z,9.88
2022-08-21T04:28:40.285Z,9.96
2022-08-21T04:29:40.324Z,9.92
2022-08-21T04:30:40.296Z,9.93
2022-08-21T04:31:40.253Z,9.85
2022-08-21T04:32:40.256Z,9.93
2022-08-21T04:33:40.231Z,9.83
2022-08-21T04:34:40.219Z,9.85
2022-08-21T04:35:40.215Z,9.92
2022-08-21T04:36:40.213Z,9.78
2022-08-21T04:37:41.571Z,9.91
2022-08-21T04:38:40.194Z,9.80
2022-08-21T04:39:40.201Z,9.86
2022-08-21T04:40:40.157Z,9.75
2022-08-21T04:41:40.150Z,9.78
2022-08-21T04:42:40.132Z,9.83
2022-08-21T04:43:40.146Z,9.92
2022-08-21T04:44:40.129Z,9.83
2022-08-21T04:45:40.101Z,9.81
2022-08-21T04:46:40.085Z,9.86
2022-08-21T04:47:52.330Z,9.81
2022-08-21T04:48:41.078Z,9.95
2022-08-21T04:49:40.075Z,9.92
2022-08-21T04:50:40.059Z,9.78
2022-08-21T04:51:40.051Z,9.91
2022-08-21T04:52:40.026Z,9.89
2022-08-21T04:53:40.010Z,9.77
2022-08-21T04:54:39.998Z,9.80
2022-08-21T04:55:40.028Z,9.81
2022-08-21T04:56:39.994Z,9.81
2022-08-21T04:57:48.706Z,9.91
2022-08-21T04:58:40.951Z,9.93
2022-08-21T04:59:39.943Z,9.96
2022-08-21T05:00:39.930Z,9.98
2022-08-21T05:01:39.979Z,9.99
2022-08-21T05:02:39.907Z,10.02
2022-08-21T05:03:39.894Z,10.02
2022-08-21T05:04:39.946Z,10.07
2022-08-21T05:05:39.872Z,9.93
2022-08-21T05:06:39.873Z,9.83
2022-08-21T05:07:41.892Z,9.83
2022-08-21T05:08:39.842Z,9.81
2022-08-21T05:09:39.829Z,9.80
2022-08-21T05:10:39.815Z,9.74
2022-08-21T05:11:39.806Z,9.83
2022-08-21T05:12:39.803Z,9.85
2022-08-21T05:13:39.858Z,9.81
2022-08-21T05:14:39.774Z,9.77
2022-08-21T05:15:39.766Z,9.83
2022-08-21T05:16:39.747Z,9.81
2022-08-21T05:17:39.742Z,9.81
2022-08-21T05:18:39.738Z,9.89
2022-08-21T05:19:39.746Z,9.83
2022-08-21T05:20:39.704Z,9.80
2022-08-21T05:21:39.698Z,9.85
2022-08-21T05:22:39.700Z,9.89
2022-08-21T05:23:39.684Z,10.04
2022-08-21T05:24:39.658Z,10.72
2022-08-21T05:25:39.696Z,11.17
2022-08-21T05:26:45.579Z,11.67
2022-08-21T05:27:40.626Z,11.98
2022-08-21T05:28:39.620Z,12.15
2022-08-21T05:29:39.717Z,12.33
2022-08-21T05:30:39.600Z,12.56
2022-08-21T05:31:39.593Z,12.71
2022-08-21T05:32:39.571Z,12.96
2022-08-21T05:33:39.564Z,12.89
2022-08-21T05:34:39.550Z,12.71
2022-08-21T05:35:39.560Z,12.89
2022-08-21T05:36:39.532Z,13.07
2022-08-21T05:37:39.567Z,13.24
2022-08-21T05:38:39.509Z,13.47
2022-08-21T05:40:04.733Z,13.65
2022-08-21T05:40:40.503Z,13.32
2022-08-21T05:41:39.477Z,12.96
2022-08-21T05:42:39.465Z,13.25
2022-08-21T05:43:39.474Z,13.68
2022-08-21T05:44:39.443Z,14.04
2022-08-21T05:45:43.383Z,14.01
2022-08-21T05:46:39.424Z,14.12
2022-08-21T05:47:39.422Z,14.17
2022-08-21T05:48:39.409Z,14.26
2022-08-21T05:49:39.392Z,14.48
2022-08-21T05:50:39.382Z,14.48
2022-08-21T05:51:39.435Z,14.30
2022-08-21T05:52:39.358Z,14.31
2022-08-21T05:53:39.344Z,14.56
2022-08-21T05:54:39.380Z,14.69
2022-08-21T05:55:44.434Z,14.59
2022-08-21T05:56:40.321Z,14.26
2022-08-21T05:57:39.338Z,14.17
2022-08-21T05:58:39.302Z,14.49
2022-08-21T05:59:39.290Z,14.71
2022-08-21T06:00:39.268Z,14.69
2022-08-21T06:01:39.292Z,14.60
2022-08-21T06:02:39.271Z,14.46
2022-08-21T06:03:39.239Z,14.64
2022-08-21T06:04:39.244Z,14.71
2022-08-21T06:05:39.228Z,14.82
2022-08-21T06:06:39.202Z,14.85
2022-08-21T06:07:39.201Z,14.83
2022-08-21T06:08:39.226Z,15.00
2022-08-21T06:09:39.176Z,14.90
2022-08-21T06:10:39.221Z,14.80
2022-08-21T06:11:39.158Z,14.45
2022-08-21T06:12:39.139Z,14.23
2022-08-21T06:13:39.138Z,14.02
2022-08-21T06:14:39.167Z,14.08
2022-08-21T06:15:39.122Z,14.16
2022-08-21T06:16:39.110Z,14.05
2022-08-21T06:17:39.090Z,14.01
2022-08-21T06:18:39.076Z,14.29
2022-08-21T06:19:39.065Z,14.63
2022-08-21T06:20:39.097Z,14.86
2022-08-21T06:21:39.063Z,14.93
2022-08-21T06:22:39.041Z,14.98
2022-08-21T06:23:39.028Z,15.03
2022-08-21T06:24:39.013Z,15.25
2022-08-21T06:25:39.004Z,15.12
2022-08-21T06:26:39.037Z,14.66
2022-08-21T06:27:38.980Z,14.59
2022-08-21T06:28:38.979Z,14.71
2022-08-21T06:29:44.230Z,14.71
2022-08-21T06:30:39.952Z,14.53
2022-08-21T06:31:38.937Z,14.34
2022-08-21T06:32:39.035Z,14.36
2022-08-21T06:33:38.913Z,14.36
2022-08-21T06:34:38.903Z,14.29
2022-08-21T06:35:41.421Z,14.35
2022-08-21T06:36:38.880Z,14.29
2022-08-21T06:37:38.873Z,14.30
2022-08-21T06:38:38.895Z,14.35
2022-08-21T06:39:43.270Z,14.54
2022-08-21T06:40:44.854Z,14.41
2022-08-21T06:41:39.835Z,14.54
2022-08-21T06:42:38.870Z,14.44
2022-08-21T06:43:39.683Z,14.39
2022-08-21T06:44:38.817Z,14.63
2022-08-21T06:45:38.791Z,14.85
2022-08-21T06:46:38.783Z,14.64
2022-08-21T06:47:38.762Z,14.71
2022-08-21T06:48:38.755Z,14.93
2022-08-21T06:49:38.754Z,14.86
2022-08-21T06:50:38.768Z,15.28
2022-08-21T06:51:38.725Z,15.31
2022-08-21T06:52:38.710Z,14.91
2022-08-21T06:53:38.701Z,14.83
2022-08-21T06:54:38.686Z,14.64
2022-08-21T06:55:38.689Z,14.67
2022-08-21T06:56:38.698Z,14.59
2022-08-21T06:57:38.666Z,14.90
2022-08-21T06:58:38.647Z,14.98
2022-08-21T06:59:38.641Z,14.98
2022-08-21T07:00:38.628Z,15.07
2022-08-21T07:01:38.721Z,15.09
2022-08-21T07:02:38.625Z,15.37
2022-08-21T07:03:38.595Z,15.86
2022-08-21T07:04:38.578Z,16.18
2022-08-21T07:05:38.571Z,16.10
2022-08-21T07:06:38.570Z,15.96
2022-08-21T07:07:38.560Z,16.23
2022-08-21T07:08:38.555Z,15.99
2022-08-21T07:09:38.526Z,15.91
2022-08-21T07:10:38.511Z,16.23
2022-08-21T07:11:42.401Z,16.65
2022-08-21T07:12:39.504Z,16.72
2022-08-21T07:13:38.487Z,16.84
2022-08-21T07:14:38.493Z,16.80
2022-08-21T07:15:38.470Z,16.32
2022-08-21T07:16:38.449Z,16.03
2022-08-21T07:17:38.440Z,15.68
2022-08-21T07:18:38.437Z,15.46
2022-08-21T07:19:38.420Z,15.56
2022-08-21T07:20:38.413Z,15.52
2022-08-21T07:21:38.452Z,15.86
2022-08-21T07:22:38.381Z,16.04
2022-08-21T07:23:38.389Z,16.16
2022-08-21T07:24:38.394Z,16.50
2022-08-21T07:25:38.358Z,16.41
2022-08-21T07:26:38.338Z,16.60
2022-08-21T07:27:38.350Z,16.67
2022-08-21T07:28:38.333Z,16.22
2022-08-21T07:29:38.311Z,16.01
2022-08-21T07:30:38.304Z,16.33
2022-08-21T07:31:38.331Z,16.06
2022-08-21T07:32:38.299Z,15.77
2022-08-21T07:33:38.276Z,15.68
2022-08-21T07:34:38.262Z,15.93
2022-08-21T07:35:38.313Z,16.27
2022-08-21T07:36:38.232Z,16.48
2022-08-21T07:37:38.218Z,16.52
2022-08-21T07:38:38.255Z,16.69
2022-08-21T07:39:38.225Z,16.52
2022-08-21T07:40:38.187Z,16.27
2022-08-21T07:41:38.290Z,16.33
2022-08-21T07:42:38.165Z,16.57
2022-08-21T07:43:38.153Z,16.27
2022-08-21T07:44:39.164Z,16.14
2022-08-21T07:45:38.130Z,16.13
2022-08-21T07:46:38.117Z,16.11
2022-08-21T07:47:42.140Z,16.33
2022-08-21T07:48:38.099Z,16.67
2022-08-21T07:49:38.085Z,16.90
2022-08-21T07:50:38.093Z,16.62
2022-08-21T07:51:38.069Z,16.75
2022-08-21T07:52:38.059Z,16.75
2022-08-21T07:53:38.042Z,16.82
2022-08-21T07:54:38.032Z,17.10
2022-08-21T07:55:38.022Z,16.63
2022-08-21T07:56:38.024Z,16.42
2022-08-21T07:57:38.014Z,16.81
2022-08-21T07:58:38.104Z,16.87
2022-08-21T07:59:37.979Z,17.09
2022-08-21T08:00:37.963Z,16.90
2022-08-21T08:01:38.009Z,16.80
2022-08-21T08:02:37.983Z,17.28
2022-08-21T08:03:37.930Z,17.38
2022-08-21T08:04:37.932Z,17.17
2022-08-21T08:05:38.940Z,16.65
2022-08-21T08:06:37.900Z,16.44
2022-08-21T08:07:37.895Z,16.59
2022-08-21T08:08:37.926Z,16.66
2022-08-21T08:09:37.872Z,16.57
2022-08-21T08:10:37.872Z,16.47
2022-08-21T08:11:37.852Z,16.51
2022-08-21T08:12:37.840Z,16.55
2022-08-21T08:13:37.916Z,16.63
2022-08-21T08:14:37.822Z,16.84
2022-08-21T08:15:37.844Z,16.77
2022-08-21T08:16:37.800Z,17.05
2022-08-21T08:17:37.783Z,16.91
2022-08-21T08:18:37.769Z,16.77
2022-08-21T08:19:37.793Z,16.73
2022-08-21T08:20:37.773Z,17.15
2022-08-21T08:21:37.735Z,17.63
2022-08-21T08:22:37.743Z,17.62
2022-08-21T08:23:37.713Z,17.53
2022-08-21T08:24:37.712Z,17.84
2022-08-21T08:25:37.694Z,17.51
2022-08-21T08:26:37.734Z,17.46
2022-08-21T08:27:37.678Z,17.84
2022-08-21T08:28:37.675Z,17.80
2022-08-21T08:29:37.652Z,18.09
2022-08-21T08:30:37.647Z,17.60
2022-08-21T08:31:37.633Z,17.66
2022-08-21T08:32:37.646Z,17.76
2022-08-21T08:33:37.653Z,17.83
2022-08-21T08:34:37.596Z,17.55
2022-08-21T08:35:39.066Z,17.68
2022-08-21T08:36:37.588Z,18.05
2022-08-21T08:37:37.589Z,17.86
2022-08-21T08:38:37.562Z,17.74
2022-08-21T08:39:37.610Z,18.14
2022-08-21T08:40:37.568Z,18.49
2022-08-21T08:41:37.529Z,17.43
2022-08-21T08:42:37.520Z,17.09
2022-08-21T08:43:37.528Z,17.47
2022-08-21T08:44:37.515Z,18.02
2022-08-21T08:45:37.475Z,17.98
2022-08-21T08:46:37.468Z,17.51
2022-08-21T08:47:37.466Z,17.95
2022-08-21T08:48:37.480Z,17.77
2022-08-21T08:49:37.449Z,17.66
2022-08-21T08:50:37.440Z,17.96
2022-08-21T08:51:37.418Z,18.42
2022-08-21T08:52:37.411Z,18.56
2022-08-21T08:53:37.400Z,18.93
2022-08-21T08:54:37.408Z,18.99
2022-08-21T08:55:37.387Z,19.07
2022-08-21T08:56:37.364Z,18.84
2022-08-21T08:57:37.458Z,19.01
2022-08-21T08:58:37.353Z,19.12
2022-08-21T08:59:37.327Z,19.13
2022-08-21T09:00:37.343Z,18.97
2022-08-21T09:01:39.228Z,19.13
2022-08-21T09:02:37.294Z,19.31
2022-08-21T09:03:37.297Z,18.82
2022-08-21T09:04:37.290Z,18.66
2022-08-21T09:05:37.305Z,18.78
2022-08-21T09:06:37.258Z,18.83
2022-08-21T09:07:37.258Z,18.83
2022-08-21T09:08:37.235Z,18.90
2022-08-21T09:09:37.223Z,19.13
2022-08-21T09:10:37.213Z,18.97
2022-08-21T09:11:37.240Z,19.23
2022-08-21T09:12:37.189Z,18.46
2022-08-21T09:13:38.734Z,18.35
2022-08-21T09:14:37.174Z,18.14
2022-08-21T09:15:37.155Z,18.66
2022-08-21T09:16:37.143Z,19.20
2022-08-21T09:17:37.177Z,19.52
2022-08-21T09:18:37.118Z,19.25
2022-08-21T09:19:37.246Z,19.52
2022-08-21T09:20:37.098Z,18.50
2022-08-21T09:21:37.094Z,18.54
2022-08-21T09:22:37.082Z,18.89
2022-08-21T09:23:37.069Z,19.38
2022-08-21T09:24:37.085Z,19.38
2022-08-21T09:25:37.055Z,19.25
2022-08-21T09:26:37.031Z,18.90
2022-08-21T09:27:37.043Z,19.02
2022-08-21T09:28:37.020Z,19.13
2022-08-21T09:29:37.011Z,19.13
2022-08-21T09:30:37.037Z,19.28
2022-08-21T09:31:36.999Z,19.83
2022-08-21T09:32:38.200Z,19.89
2022-08-21T09:33:36.958Z,19.83
2022-08-21T09:34:36.949Z,19.58
2022-08-21T09:35:36.934Z,19.72
2022-08-21T09:36:36.938Z,19.80
2022-08-21T09:37:36.967Z,20.01
2022-08-21T09:38:36.916Z,20.44
2022-08-21T09:39:40.183Z,19.87
2022-08-21T09:40:37.128Z,20.15
2022-08-21T09:41:36.970Z,20.34
2022-08-21T09:42:36.861Z,19.90
2022-08-21T09:43:36.865Z,20.20
2022-08-21T09:44:36.879Z,20.07
2022-08-21T09:45:36.844Z,19.72
2022-08-21T09:46:36.818Z,20.23
2022-08-21T09:47:36.804Z,20.63
2022-08-21T09:48:36.791Z,20.91
2022-08-21T09:49:36.806Z,20.81
2022-08-21T09:50:36.773Z,20.82
2022-08-21T09:51:36.807Z,19.98
2022-08-21T09:52:36.748Z,20.08
2022-08-21T09:53:36.741Z,20.30
2022-08-21T09:54:36.747Z,20.01
2022-08-21T09:55:36.723Z,20.33
2022-08-21T09:56:36.708Z,20.50
2022-08-21T09:57:36.727Z,19.92
2022-08-21T09:58:36.686Z,20.58
2022-08-21T09:59:37.367Z,20.71
2022-08-21T10:00:36.703Z,21.00
2022-08-21T10:01:36.779Z,20.85
2022-08-21T10:02:36.645Z,20.87
2022-08-21T10:03:36.719Z,20.96
2022-08-21T10:04:36.629Z,20.96
2022-08-21T10:05:36.609Z,20.13
2022-08-21T10:06:36.598Z,19.89
2022-08-21T10:07:36.721Z,19.83
2022-08-21T10:08:36.584Z,19.83
2022-08-21T10:09:36.566Z,19.86
2022-08-21T10:10:36.559Z,20.46
2022-08-21T10:11:36.541Z,21.09
2022-08-21T10:12:36.534Z,21.19
2022-08-21T10:13:36.539Z,21.26
2022-08-21T10:14:36.951Z,21.38
2022-08-21T10:15:36.500Z,21.24
2022-08-21T10:16:36.515Z,21.34
2022-08-21T10:17:36.495Z,21.83
2022-08-21T10:18:36.470Z,21.74
2022-08-21T10:19:36.465Z,21.12
2022-08-21T10:20:36.450Z,21.37
2022-08-21T10:21:36.441Z,21.43
2022-08-21T10:22:36.589Z,21.49
2022-08-21T10:23:36.415Z,21.63
2022-08-21T10:24:36.415Z,21.79
2022-08-21T10:25:36.417Z,21.66
2022-08-21T10:26:36.380Z,21.28
2022-08-21T10:27:36.379Z,21.37
2022-08-21T10:28:36.376Z,21.71
2022-08-21T10:29:36.354Z,21.98
2022-08-21T10:30:36.372Z,21.48
2022-08-21T10:31:36.332Z,21.36
2022-08-21T10:32:36.321Z,21.46
2022-08-21T10:33:36.318Z,21.24
2022-08-21T10:34:36.314Z,20.48
2022-08-21T10:35:36.294Z,20.76
2022-08-21T10:36:36.316Z,20.82
2022-08-21T10:37:36.278Z,20.23
2022-08-21T10:38:52.774Z,19.94
2022-08-21T10:39:37.289Z,19.95
2022-08-21T10:40:36.259Z,19.71
2022-08-21T10:41:36.243Z,20.17
2022-08-21T10:42:36.226Z,20.44
2022-08-21T10:43:36.528Z,20.37
2022-08-21T10:44:36.275Z,20.31
2022-08-21T10:45:36.228Z,20.17
2022-08-21T10:46:36.190Z,19.87
2022-08-21T10:47:36.172Z,19.76
2022-08-21T10:48:36.152Z,19.70
2022-08-21T10:49:36.155Z,19.42
2022-08-21T10:50:36.226Z,20.04
2022-08-21T10:51:36.128Z,20.44
2022-08-21T10:52:36.106Z,20.83
2022-08-21T10:53:36.113Z,20.75
2022-08-21T10:54:36.091Z,21.05
2022-08-21T10:55:36.089Z,21.45
2022-08-21T10:56:36.064Z,21.64
2022-08-21T10:57:36.065Z,21.55
2022-08-21T10:58:36.074Z,21.30
2022-08-21T10:59:38.700Z,21.09
2022-08-21T11:00:36.113Z,21.27
2022-08-21T11:01:36.104Z,21.12
2022-08-21T11:02:35.996Z,20.90
2022-08-21T11:03:35.988Z,20.51
2022-08-21T11:04:46.337Z,20.19
2022-08-21T11:05:36.980Z,19.71
2022-08-21T11:06:35.965Z,19.95
2022-08-21T11:07:35.964Z,20.57
2022-08-21T11:08:35.981Z,21.06
2022-08-21T11:09:35.955Z,21.55
2022-08-21T11:10:35.918Z,21.83
2022-08-21T11:11:36.384Z,21.83
2022-08-21T11:12:35.894Z,22.11
2022-08-21T11:13:35.975Z,22.31
2022-08-21T11:14:35.873Z,22.04
2022-08-21T11:15:35.868Z,21.68
2022-08-21T11:16:35.859Z,21.40
2022-08-21T11:17:35.839Z,21.56
2022-08-21T11:18:35.833Z,21.55
2022-08-21T11:19:35.925Z,21.63
2022-08-21T11:20:35.814Z,21.59
2022-08-21T11:21:35.803Z,21.64
2022-08-21T11:22:35.843Z,21.82
2022-08-21T11:23:35.798Z,22.01
2022-08-21T11:24:35.775Z,22.05
2022-08-21T11:25:36.787Z,21.61
2022-08-21T11:26:35.746Z,21.67
2022-08-21T11:27:35.745Z,21.94
2022-08-21T11:28:35.838Z,22.15
2022-08-21T11:29:35.714Z,22.38
2022-08-21T11:30:35.702Z,22.21
2022-08-21T11:31:35.705Z,22.06
2022-08-21T11:32:35.687Z,22.11
2022-08-21T11:33:35.682Z,22.31
2022-08-21T11:34:35.689Z,22.15
2022-08-21T11:35:35.654Z,22.04
2022-08-21T11:36:35.657Z,22.11
2022-08-21T11:37:35.633Z,22.59
2022-08-21T11:38:35.634Z,22.72
2022-08-21T11:39:35.685Z,22.82
2022-08-21T11:40:35.611Z,22.82
2022-08-21T11:41:35.644Z,23.19
2022-08-21T11:42:35.582Z,23.38
2022-08-21T11:43:35.587Z,23.41
2022-08-21T11:44:35.575Z,23.31
2022-08-21T11:45:35.537Z,22.72
2022-08-21T11:46:35.531Z,21.85
2022-08-21T11:47:35.539Z,21.58
2022-08-21T11:48:35.502Z,21.38
2022-08-21T11:49:35.501Z,22.14
2022-08-21T11:50:36.487Z,22.82
2022-08-21T11:51:35.480Z,23.09
2022-08-21T11:52:35.570Z,23.41
2022-08-21T11:53:35.456Z,23.09
2022-08-21T11:54:35.432Z,22.93
2022-08-21T11:55:35.443Z,22.51
2022-08-21T11:56:35.412Z,22.35
2022-08-21T11:57:35.411Z,21.99
2022-08-21T11:58:35.418Z,21.15
2022-08-21T11:59:40.162Z,21.09
2022-08-21T12:00:36.369Z,21.15
2022-08-21T12:01:35.435Z,20.73
2022-08-21T12:02:35.354Z,20.57
2022-08-21T12:03:35.346Z,20.63
2022-08-21T12:04:35.347Z,20.58
2022-08-21T12:05:35.322Z,20.50
2022-08-21T12:06:35.310Z,20.37
2022-08-21T12:07:35.328Z,20.31
2022-08-21T12:08:35.288Z,20.30
2022-08-21T12:09:35.282Z,20.26
2022-08-21T12:10:35.284Z,20.27
2022-08-21T12:11:35.256Z,20.25
2022-08-21T12:12:35.239Z,20.15
2022-08-21T12:13:40.381Z,20.16
2022-08-21T12:14:36.218Z,20.10
2022-08-21T12:15:35.219Z,20.13
2022-08-21T12:16:35.217Z,20.01
2022-08-21T12:17:35.192Z,20.00
2022-08-21T12:18:35.180Z,19.89
2022-08-21T12:19:35.197Z,19.70
2022-08-21T12:20:35.169Z,19.92
2022-08-21T12:21:35.167Z,20.37
2022-08-21T12:22:35.212Z,20.63
2022-08-21T12:23:35.147Z,20.73
2022-08-21T12:24:35.137Z,20.76
2022-08-21T12:25:35.113Z,20.94
2022-08-21T12:26:35.136Z,20.90
2022-08-21T12:27:35.121Z,20.90
2022-08-21T12:28:35.076Z,20.98
2022-08-21T12:29:35.066Z,20.85
2022-08-21T12:30:35.052Z,20.87
2022-08-21T12:31:35.075Z,20.79
2022-08-21T12:32:35.051Z,21.05
2022-08-21T12:33:35.029Z,21.28
2022-08-21T12:34:35.140Z,21.38
2022-08-21T12:35:35.005Z,21.74
2022-08-21T12:36:38.759Z,21.91
2022-08-21T12:37:35.019Z,22.20
2022-08-21T12:38:34.976Z,22.44
2022-08-21T12:39:35.141Z,22.45
2022-08-21T12:40:34.966Z,22.75
2022-08-21T12:41:34.939Z,22.42
2022-08-21T12:42:34.929Z,22.08
2022-08-21T12:43:34.930Z,22.20
2022-08-21T12:44:34.945Z,22.46
2022-08-21T12:45:34.926Z,22.81
2022-08-21T12:46:34.894Z,22.96
2022-08-21T12:47:34.878Z,23.03
2022-08-21T12:48:34.882Z,23.11
2022-08-21T12:49:34.857Z,22.88
2022-08-21T12:50:34.871Z,22.82
2022-08-21T12:51:34.841Z,23.21
2022-08-21T12:52:39.173Z,23.03
2022-08-21T12:53:34.836Z,22.61
2022-08-21T12:54:34.807Z,22.66